Time;durP1;ratioP1;P1;durP2;ratioP2;P2;SDS_P1;SDS_P2;PMS_P1;PMS_P2;Temp;Humidity;BMP_temperature;BMP_pressure;BME280_temperature;BME280_humidity;BME280_pressure;Samples;Min_cycle;Max_cycle;Signal;HPM_P1;HPM_P2
2020/12/28 00:00:45;;;;;;;24.73;10.15;;;1.30;99.90;;;;;;4490025;27;658173;-67
2020/12/28 00:03:32;;;;;;;37.67;12.43;;;1.20;99.90;;;;;;4475445;27;657694;-63
2020/12/28 00:06:19;;;;;;;27.83;10.30;;;1.10;99.90;;;;;;4486444;27;658900;-67
2020/12/28 00:09:06;;;;;;;32.90;11.25;;;1.20;99.90;;;;;;4480813;27;657712;-67
2020/12/28 00:11:54;;;;;;;25.77;10.35;;;1.20;99.90;;;;;;4474333;27;658476;-67
2020/12/28 00:14:42;;;;;;;25.57;9.90;;;1.30;99.90;;;;;;4478702;27;657664;-67
2020/12/28 00:17:29;;;;;;;26.43;10.03;;;1.30;99.90;;;;;;4472991;27;657967;-67
2020/12/28 00:20:16;;;;;;;24.47;9.90;;;1.30;99.90;;;;;;4491083;27;657969;-67
2020/12/28 00:23:03;;;;;;;29.75;9.38;;;1.20;99.90;;;;;;4470377;27;656871;-67
2020/12/28 00:25:50;;;;;;;28.08;10.05;;;1.30;99.90;;;;;;4501404;27;657201;-67
2020/12/28 00:28:37;;;;;;;28.40;10.37;;;1.30;99.90;;;;;;4470468;27;657884;-64
2020/12/28 00:31:25;;;;;;;31.13;10.50;;;1.30;99.90;;;;;;4500835;27;657917;-67
2020/12/28 00:34:12;;;;;;;26.07;9.87;;;1.20;99.90;;;;;;4472239;27;657681;-64
2020/12/28 00:36:59;;;;;;;23.52;8.82;;;1.20;99.90;;;;;;4506214;27;657557;-67
2020/12/28 00:39:46;;;;;;;22.60;9.03;;;1.30;99.90;;;;;;4490223;27;656841;-68
2020/12/28 00:42:33;;;;;;;23.77;8.60;;;1.40;99.90;;;;;;4478027;27;656643;-68
2020/12/28 00:45:20;;;;;;;22.38;8.38;;;1.30;99.90;;;;;;4490402;27;658171;-68
2020/12/28 00:48:08;;;;;;;22.20;8.70;;;1.30;99.90;;;;;;4469242;27;656571;-65
2020/12/28 00:50:55;;;;;;;22.23;8.60;;;1.30;99.90;;;;;;4490659;27;657879;-68
2020/12/28 00:53:42;;;;;;;20.60;8.67;;;1.40;99.90;;;;;;4489438;27;657738;-65
2020/12/28 00:56:29;;;;;;;29.87;9.63;;;1.20;99.90;;;;;;4494642;27;657488;-68
2020/12/28 00:59:16;;;;;;;26.37;9.40;;;1.30;99.90;;;;;;4488823;27;657319;-67
2020/12/28 01:02:03;;;;;;;28.87;9.60;;;1.40;99.90;;;;;;4476056;27;656484;-67
2020/12/28 01:04:51;;;;;;;27.97;9.10;;;1.30;99.90;;;;;;4492082;27;657955;-68
2020/12/28 01:07:38;;;;;;;27.27;9.60;;;1.30;99.90;;;;;;4472402;27;656362;-67
2020/12/28 01:10:26;;;;;;;29.77;9.80;;;1.30;99.90;;;;;;4504335;27;658028;-68
2020/12/28 01:13:14;;;;;;;22.03;7.77;;;1.30;99.90;;;;;;4478547;27;656504;-67
2020/12/28 01:16:01;;;;;;;21.03;7.80;;;1.30;99.90;;;;;;4504150;27;657416;-67
2020/12/28 01:18:48;;;;;;;26.40;9.07;;;1.50;99.90;;;;;;4471711;27;657297;-67
2020/12/28 01:21:36;;;;;;;26.97;8.40;;;1.40;99.90;;;;;;4487209;27;656761;-67
2020/12/28 01:24:23;;;;;;;21.48;7.97;;;1.60;99.90;;;;;;4468300;27;656654;-68
2020/12/28 01:27:10;;;;;;;20.73;8.00;;;1.60;99.90;;;;;;4495306;27;658472;-68
2020/12/28 01:29:57;;;;;;;19.90;7.60;;;1.50;99.90;;;;;;4464887;27;657008;-63
2020/12/28 01:32:44;;;;;;;18.70;6.83;;;1.40;99.90;;;;;;4500300;27;656527;-67
2020/12/28 01:35:31;;;;;;;17.90;6.00;;;1.50;99.90;;;;;;4501538;27;657056;-68
2020/12/28 01:38:19;;;;;;;19.10;6.97;;;1.70;99.90;;;;;;4468858;27;656551;-67
2020/12/28 01:41:06;;;;;;;17.23;6.57;;;1.70;99.90;;;;;;4490847;27;656192;-68
2020/12/28 01:43:53;;;;;;;15.53;6.00;;;1.60;99.90;;;;;;4477019;27;656375;-67
2020/12/28 01:46:39;;;;;;;18.60;7.00;;;1.60;99.90;;;;;;4495724;27;658188;-68
2020/12/28 01:49:26;;;;;;;15.97;6.30;;;1.60;99.90;;;;;;4503451;27;656373;-68
2020/12/28 01:52:13;;;;;;;13.77;6.23;;;1.60;99.90;;;;;;4477001;27;656786;-67
2020/12/28 01:55:01;;;;;;;18.43;6.60;;;1.70;99.90;;;;;;4495948;27;656532;-68
2020/12/28 01:57:48;;;;;;;13.67;6.07;;;1.80;99.90;;;;;;4469789;27;656954;-67
2020/12/28 02:00:35;;;;;;;13.83;5.80;;;1.80;99.90;;;;;;4500256;27;658938;-68
2020/12/28 02:03:22;;;;;;;15.70;6.10;;;1.80;99.90;;;;;;4470208;27;657149;-67
2020/12/28 02:06:09;;;;;;;15.10;6.35;;;1.80;99.90;;;;;;4499796;27;658041;-68
2020/12/28 02:08:56;;;;;;;14.50;6.00;;;1.80;99.90;;;;;;4489992;27;656518;-67
2020/12/28 02:11:44;;;;;;;15.87;5.47;;;1.70;99.90;;;;;;4476817;27;657764;-67
2020/12/28 02:14:31;;;;;;;15.33;5.83;;;1.70;99.90;;;;;;4502758;27;657159;-68
2020/12/28 02:17:18;;;;;;;17.07;5.90;;;1.70;99.90;;;;;;4476877;27;656687;-67
2020/12/28 02:20:05;;;;;;;12.60;5.27;;;1.60;99.90;;;;;;4497477;27;657700;-67
2020/12/28 02:22:53;;;;;;;14.10;5.60;;;1.60;99.90;;;;;;4487048;27;656467;-62
2020/12/28 02:25:40;;;;;;;11.23;5.17;;;1.70;99.90;;;;;;4494960;27;657168;-67
2020/12/28 02:28:27;;;;;;;12.27;4.80;;;1.70;99.90;;;;;;4476072;27;657441;-65
2020/12/28 02:31:14;;;;;;;10.90;4.73;;;1.60;99.90;;;;;;4496265;27;657312;-67
2020/12/28 02:34:01;;;;;;;11.43;5.17;;;1.60;99.90;;;;;;4500215;27;656590;-68
2020/12/28 02:36:48;;;;;;;16.43;5.43;;;1.60;99.90;;;;;;4465539;27;656483;-67
2020/12/28 02:39:36;;;;;;;14.77;4.93;;;1.60;99.90;;;;;;4505351;27;657380;-68
2020/12/28 02:42:23;;;;;;;10.90;4.40;;;1.70;99.90;;;;;;4485051;27;656514;-68
2020/12/28 02:45:10;;;;;;;8.20;3.60;;;1.70;99.90;;;;;;4500569;27;658564;-68
2020/12/28 02:47:57;;;;;;;7.57;3.77;;;1.70;99.90;;;;;;4498904;27;656084;-65
2020/12/28 02:50:44;;;;;;;8.63;3.90;;;1.70;99.90;;;;;;4489758;27;656668;-68
2020/12/28 02:53:31;;;;;;;9.17;3.70;;;1.90;99.90;;;;;;4501782;27;655885;-68
2020/12/28 02:56:19;;;;;;;8.97;3.83;;;1.80;99.90;;;;;;4489277;27;655611;-67
2020/12/28 02:59:06;;;;;;;11.07;4.27;;;1.70;99.90;;;;;;4495667;27;655321;-68
2020/12/28 03:01:53;;;;;;;8.63;3.90;;;1.70;99.90;;;;;;4468837;27;656700;-67
2020/12/28 03:04:40;;;;;;;6.80;3.27;;;1.80;99.90;;;;;;4503708;27;656931;-68
2020/12/28 03:07:27;;;;;;;9.03;4.30;;;1.80;99.90;;;;;;4472517;27;656100;-64
2020/12/28 03:10:14;;;;;;;10.70;4.40;;;1.70;99.90;;;;;;4506819;27;655712;-68
2020/12/28 03:13:02;;;;;;;10.73;5.17;;;1.80;99.90;;;;;;4493140;27;656571;-67
2020/12/28 03:15:49;;;;;;;12.10;4.93;;;1.70;99.90;;;;;;4484600;27;658487;-68
2020/12/28 03:18:36;;;;;;;9.70;4.87;;;1.70;99.90;;;;;;4486952;27;657336;-68
2020/12/28 03:21:23;;;;;;;7.33;3.60;;;1.80;99.90;;;;;;4471103;27;655834;-67
2020/12/28 03:24:10;;;;;;;7.03;3.43;;;1.90;99.90;;;;;;4491551;27;656885;-68
2020/12/28 03:27:02;;;;;;;7.73;3.47;;;2.00;99.90;;;;;;4478162;27;655531;-63
2020/12/28 03:29:50;;;;;;;7.87;3.30;;;1.90;99.90;;;;;;4472039;27;656334;-68
2020/12/28 03:32:37;;;;;;;5.57;2.80;;;1.90;99.90;;;;;;4488825;27;656042;-64
2020/12/28 03:35:25;;;;;;;11.00;3.23;;;2.00;99.90;;;;;;4503515;27;655424;-68
2020/12/28 03:38:12;;;;;;;7.77;3.37;;;2.00;99.90;;;;;;4468824;27;656643;-65
2020/12/28 03:40:59;;;;;;;10.53;3.07;;;1.90;99.90;;;;;;4491317;27;657224;-68
2020/12/28 03:43:46;;;;;;;6.97;3.03;;;1.80;99.90;;;;;;4495691;27;657190;-68
2020/12/28 03:46:34;;;;;;;8.30;3.20;;;1.90;99.90;;;;;;4473554;27;656147;-67
2020/12/28 03:49:21;;;;;;;6.07;3.13;;;1.90;99.90;;;;;;4497503;27;654787;-68
2020/12/28 03:52:08;;;;;;;13.27;2.73;;;1.80;99.90;;;;;;4481099;27;656065;-68
2020/12/28 03:54:55;;;;;;;6.80;2.70;;;1.70;99.90;;;;;;4489661;27;657629;-68
2020/12/28 03:57:42;;;;;;;6.07;2.67;;;1.60;99.90;;;;;;4501413;27;655572;-65
2020/12/28 04:00:29;;;;;;;8.77;2.80;;;1.60;99.90;;;;;;4491581;27;655462;-68
2020/12/28 04:03:17;;;;;;;6.60;2.90;;;1.50;99.90;;;;;;4496964;27;656169;-68
2020/12/28 04:06:04;;;;;;;6.80;2.57;;;1.50;99.90;;;;;;4452906;27;656138;-68
2020/12/28 04:08:51;;;;;;;6.07;2.33;;;1.40;99.90;;;;;;4499007;27;655677;-68
2020/12/28 04:11:38;;;;;;;8.20;3.57;;;1.50;99.90;;;;;;4464550;27;656393;-68
2020/12/28 04:14:25;;;;;;;8.33;3.73;;;1.40;99.90;;;;;;4498565;27;657795;-68
2020/12/28 04:17:12;;;;;;;7.30;3.30;;;1.30;99.90;;;;;;4484125;27;655361;-65
2020/12/28 04:20:00;;;;;;;10.30;4.60;;;1.20;99.90;;;;;;4496203;27;657763;-68
2020/12/28 04:22:47;;;;;;;30.50;10.27;;;1.00;99.90;;;;;;4465385;27;656702;-63
2020/12/28 04:25:34;;;;;;;52.63;16.17;;;1.00;99.90;;;;;;4504035;27;658412;-68
2020/12/28 04:28:21;;;;;;;64.35;19.55;;;0.90;99.90;;;;;;4474280;27;658215;-68
2020/12/28 04:31:09;;;;;;;50.58;15.05;;;0.80;99.90;;;;;;4476176;27;658787;-67
2020/12/28 04:33:56;;;;;;;42.27;12.77;;;0.80;99.90;;;;;;4497050;27;659286;-68
2020/12/28 04:36:44;;;;;;;35.03;10.20;;;0.70;99.90;;;;;;4461213;27;657552;-67
2020/12/28 04:39:31;;;;;;;40.73;12.60;;;0.70;99.90;;;;;;4487290;27;658321;-64
2020/12/28 04:42:23;;;;;;;34.45;10.40;;;0.70;99.90;;;;;;4471545;27;658429;-68
2020/12/28 04:45:10;;;;;;;23.17;8.40;;;0.60;99.90;;;;;;4472378;27;659093;-68
2020/12/28 04:47:57;;;;;;;29.27;9.50;;;0.50;99.90;;;;;;4481315;27;656835;-65
2020/12/28 04:50:44;;;;;;;21.80;7.03;;;0.60;99.90;;;;;;4500209;27;657854;-68
2020/12/28 04:53:32;;;;;;;24.17;7.93;;;0.60;99.90;;;;;;4496857;27;656466;-68
2020/12/28 04:56:19;;;;;;;25.35;7.90;;;0.50;99.90;;;;;;4477434;27;657328;-68
2020/12/28 04:59:06;;;;;;;17.67;6.70;;;0.50;99.90;;;;;;4502272;27;656772;-68
2020/12/28 05:01:54;;;;;;;16.03;5.40;;;0.40;99.90;;;;;;4470909;27;657342;-67
2020/12/28 05:04:40;;;;;;;9.27;4.03;;;0.40;99.90;;;;;;4502225;27;656993;-68
2020/12/28 05:07:31;;;;;;;10.97;4.93;;;0.40;99.90;;;;;;4471442;27;656522;-67
2020/12/28 05:10:23;;;;;;;11.47;4.80;;;0.50;99.90;;;;;;4471826;27;656450;-68
2020/12/28 05:13:10;;;;;;;10.87;5.53;;;0.60;99.90;;;;;;4462483;27;656963;-67
2020/12/28 05:15:57;;;;;;;11.77;5.27;;;0.70;99.90;;;;;;4471284;27;656813;-67
2020/12/28 05:18:52;;;;;;;16.47;6.87;;;0.80;99.90;;;;;;4484659;27;657269;-68
2020/12/28 05:21:42;;;;;;;12.13;5.03;;;0.90;99.90;;;;;;4476264;27;656594;-68
2020/12/28 05:24:29;;;;;;;13.87;5.73;;;0.90;99.90;;;;;;4472926;27;657898;-68
2020/12/28 05:27:17;;;;;;;12.32;4.18;;;0.90;99.90;;;;;;4495351;27;656703;-67
2020/12/28 05:30:04;;;;;;;14.30;5.23;;;1.00;99.90;;;;;;4464903;27;658109;-68
2020/12/28 05:32:51;;;;;;;12.33;4.43;;;1.00;99.90;;;;;;4495126;27;657814;-68
2020/12/28 05:35:38;;;;;;;11.67;3.40;;;1.10;99.90;;;;;;4469168;27;657040;-68
2020/12/28 05:38:26;;;;;;;7.37;2.33;;;1.10;99.90;;;;;;4488330;27;657669;-68
2020/12/28 05:41:13;;;;;;;4.53;1.83;;;1.20;99.90;;;;;;4478128;27;656018;-68
2020/12/28 05:44:11;;;;;;;4.03;1.73;;;1.40;99.90;;;;;;4479850;27;656380;-68
2020/12/28 05:47:02;;;;;;;4.60;1.90;;;1.50;99.90;;;;;;4476155;27;656346;-67
2020/12/28 05:49:49;;;;;;;7.10;2.70;;;1.50;99.90;;;;;;4463242;27;656846;-67
2020/12/28 05:52:37;;;;;;;11.90;4.28;;;1.60;99.90;;;;;;4504601;27;655737;-67
2020/12/28 05:55:25;;;;;;;17.97;6.20;;;1.80;99.90;;;;;;4460904;27;657985;-68
2020/12/28 05:58:12;;;;;;;12.40;5.30;;;2.00;99.90;;;;;;4492244;27;656518;-65
2020/12/28 06:01:00;;;;;;;9.67;4.10;;;2.00;99.90;;;;;;4479368;27;658068;-68
2020/12/28 06:03:47;;;;;;;10.90;4.63;;;2.10;99.90;;;;;;4500829;27;655286;-65
2020/12/28 06:06:34;;;;;;;11.77;4.97;;;2.20;99.90;;;;;;4505601;27;657020;-67
2020/12/28 06:09:21;;;;;;;17.58;6.07;;;2.10;99.90;;;;;;4499836;27;656391;-68
2020/12/28 06:12:09;;;;;;;11.80;5.23;;;2.00;99.90;;;;;;4476069;27;656673;-67
2020/12/28 06:14:56;;;;;;;20.07;7.90;;;2.00;99.90;;;;;;4490357;27;656690;-68
2020/12/28 06:17:44;;;;;;;12.53;4.70;;;1.90;99.90;;;;;;4482894;27;656877;-68
2020/12/28 06:20:31;;;;;;;11.97;5.13;;;2.10;99.90;;;;;;4492508;27;656305;-68
2020/12/28 06:23:25;;;;;;;10.53;4.30;;;2.20;99.90;;;;;;4479856;27;658635;-68
2020/12/28 06:26:18;;;;;;;7.20;2.60;;;2.20;99.90;;;;;;4474049;27;657896;-65
2020/12/28 06:29:05;;;;;;;5.10;1.87;;;2.20;99.90;;;;;;4474463;27;656267;-68
2020/12/28 06:31:52;;;;;;;5.77;2.03;;;2.30;99.90;;;;;;4486377;27;656071;-67
2020/12/28 06:34:40;;;;;;;7.80;3.00;;;2.20;99.90;;;;;;4502108;27;656652;-68
2020/12/28 06:37:27;;;;;;;4.90;2.00;;;2.40;99.90;;;;;;4485493;27;655458;-67
2020/12/28 06:40:16;;;;;;;5.13;1.67;;;2.60;99.90;;;;;;4502253;27;656953;-67
2020/12/28 06:43:09;;;;;;;5.77;1.90;;;2.70;99.90;;;;;;4484332;27;656552;-68
2020/12/28 06:45:56;;;;;;;7.70;2.40;;;2.70;99.90;;;;;;4474751;27;655668;-68
2020/12/28 06:48:45;;;;;;;7.77;3.33;;;2.80;99.90;;;;;;4473837;27;655510;-68
2020/12/28 06:51:33;;;;;;;16.03;5.70;;;2.90;99.90;;;;;;4494812;27;656722;-65
2020/12/28 06:54:22;;;;;;;42.07;11.37;;;3.00;99.90;;;;;;4498004;27;657250;-68
2020/12/28 06:57:09;;;;;;;26.10;7.47;;;2.90;99.90;;;;;;4430596;27;658579;-68
2020/12/28 06:59:56;;;;;;;16.57;5.50;;;2.80;99.90;;;;;;4467226;27;656087;-69
2020/12/28 07:02:46;;;;;;;16.87;6.70;;;2.80;99.90;;;;;;4441133;27;656461;-68
2020/12/28 07:05:33;;;;;;;11.00;4.77;;;2.80;99.90;;;;;;4447400;27;657153;-67
2020/12/28 07:08:26;;;;;;;9.87;4.13;;;2.80;99.90;;;;;;4452879;27;658360;-68
2020/12/28 07:11:16;;;;;;;5.97;2.57;;;2.70;99.90;;;;;;4415663;27;656435;-68
2020/12/28 07:14:04;;;;;;;4.60;2.30;;;2.90;99.90;;;;;;4438944;28;655627;-68
2020/12/28 07:16:54;;;;;;;7.77;3.00;;;3.10;99.90;;;;;;4452065;28;656739;-67
2020/12/28 07:19:41;;;;;;;4.53;2.03;;;3.20;99.90;;;;;;4429818;28;655573;-68
2020/12/28 07:22:33;;;;;;;3.73;1.47;;;3.40;99.90;;;;;;4446056;27;655444;-67
2020/12/28 07:25:21;;;;;;;2.93;1.33;;;3.50;99.90;;;;;;4444664;27;656475;-68
2020/12/28 07:28:09;;;;;;;4.03;1.50;;;3.70;99.90;;;;;;4430751;28;655337;-68
2020/12/28 07:30:57;;;;;;;7.67;3.70;;;3.80;99.90;;;;;;4465061;27;655051;-68
2020/12/28 07:33:45;;;;;;;6.17;2.53;;;3.90;99.90;;;;;;4434360;27;656431;-68
2020/12/28 07:36:33;;;;;;;6.97;2.67;;;4.00;99.90;;;;;;4453806;27;655777;-64
2020/12/28 07:39:20;;;;;;;7.70;2.80;;;4.20;99.90;;;;;;4471654;27;657873;-68
2020/12/28 07:42:08;;;;;;;5.87;2.57;;;4.20;99.90;;;;;;4440982;28;655269;-64
2020/12/28 07:44:56;;;;;;;5.93;2.30;;;4.40;99.90;;;;;;4438708;28;656002;-68
2020/12/28 07:47:46;;;;;;;6.47;2.27;;;4.50;99.90;;;;;;4416280;28;655913;-68
2020/12/28 07:50:33;;;;;;;7.47;3.30;;;4.60;99.90;;;;;;4415957;28;656158;-68
2020/12/28 07:53:23;;;;;;;11.20;3.80;;;4.70;99.90;;;;;;4438864;28;657048;-68
2020/12/28 07:56:17;;;;;;;5.20;2.73;;;4.70;99.90;;;;;;4437589;28;658233;-68
2020/12/28 07:59:08;;;;;;;5.70;2.60;;;4.80;99.10;;;;;;4426991;28;656106;-68
2020/12/28 08:01:56;;;;;;;4.53;1.90;;;4.80;99.90;;;;;;4457932;27;656701;-68
2020/12/28 08:04:43;;;;;;;4.37;1.60;;;4.80;98.60;;;;;;4476298;27;656576;-68
2020/12/28 08:07:33;;;;;;;11.00;3.23;;;4.80;99.80;;;;;;4489519;27;656716;-68
2020/12/28 08:10:20;;;;;;;16.10;4.70;;;4.80;99.90;;;;;;4467057;27;658146;-68
2020/12/28 08:13:07;;;;;;;12.50;3.07;;;4.80;99.90;;;;;;4478243;27;657409;-67
2020/12/28 08:15:56;;;;;;;8.10;2.40;;;4.70;99.90;;;;;;4491081;27;657737;-68
2020/12/28 08:18:46;;;;;;;11.63;3.17;;;4.80;99.90;;;;;;4479361;27;655346;-67
2020/12/28 08:21:41;;;;;;;7.57;2.50;;;4.70;99.90;;;;;;4478222;27;656584;-68
2020/12/28 08:24:28;;;;;;;9.90;2.73;;;4.70;99.90;;;;;;4460008;27;655372;-67
2020/12/28 08:27:15;;;;;;;12.80;2.90;;;4.60;99.90;;;;;;4491095;27;656749;-69
2020/12/28 08:30:06;;;;;;;11.87;3.67;;;4.60;99.90;;;;;;4491517;27;656729;-64
2020/12/28 08:32:56;;;;;;;8.73;3.27;;;4.60;99.90;;;;;;4480552;27;657257;-67
2020/12/28 08:35:47;;;;;;;9.90;3.23;;;4.70;99.90;;;;;;4473536;27;655408;-68
2020/12/28 08:38:34;;;;;;;11.43;4.27;;;4.70;99.90;;;;;;4465731;27;656488;-68
2020/12/28 08:41:21;;;;;;;11.17;3.87;;;4.70;99.90;;;;;;4491101;27;657193;-68
2020/12/28 08:44:08;;;;;;;9.40;3.30;;;4.70;99.90;;;;;;4465279;27;657024;-67
2020/12/28 08:46:55;;;;;;;7.90;3.33;;;4.80;99.90;;;;;;4494771;27;656637;-69
2020/12/28 08:49:46;;;;;;;15.27;4.63;;;4.80;99.90;;;;;;4479225;27;655901;-65
2020/12/28 08:52:33;;;;;;;7.23;3.33;;;4.80;99.90;;;;;;4473635;27;656526;-68
2020/12/28 08:55:20;;;;;;;12.17;4.20;;;4.80;99.90;;;;;;4497925;27;655540;-68
2020/12/28 08:58:07;;;;;;;11.37;4.40;;;4.90;99.90;;;;;;4489794;27;657838;-64
2020/12/28 09:00:54;;;;;;;11.10;4.20;;;5.00;99.90;;;;;;4487803;27;657502;-68
2020/12/28 09:03:41;;;;;;;12.37;4.33;;;5.00;99.90;;;;;;4494491;27;656728;-68
2020/12/28 09:06:29;;;;;;;10.40;4.27;;;5.10;99.90;;;;;;4462986;27;657418;-68
2020/12/28 09:09:16;;;;;;;6.97;3.23;;;5.40;99.20;;;;;;4501184;27;656536;-68
2020/12/28 09:12:03;;;;;;;5.77;3.03;;;5.90;96.00;;;;;;4475693;27;657322;-68
2020/12/28 09:14:56;;;;;;;8.50;3.67;;;6.50;92.50;;;;;;4482873;27;656514;-68
2020/12/28 09:17:43;;;;;;;5.87;2.67;;;7.70;90.50;;;;;;4452103;27;656245;-68
2020/12/28 09:20:30;;;;;;;9.33;2.70;;;8.60;79.00;;;;;;4484705;27;655950;-69
2020/12/28 09:23:18;;;;;;;23.20;8.23;;;9.60;73.50;;;;;;4478989;27;656432;-65
2020/12/28 09:26:05;;;;;;;12.27;5.17;;;10.60;67.90;;;;;;4488316;27;657842;-69
2020/12/28 09:28:52;;;;;;;6.17;3.07;;;11.30;63.20;;;;;;4470229;27;657684;-65
2020/12/28 09:31:39;;;;;;;12.30;3.80;;;11.50;60.60;;;;;;4499589;27;656516;-69
2020/12/28 09:34:26;;;;;;;25.60;7.47;;;11.80;62.00;;;;;;4497066;27;658494;-69
2020/12/28 09:37:13;;;;;;;10.97;4.73;;;12.20;58.60;;;;;;4467066;27;657467;-68
2020/12/28 09:40:01;;;;;;;10.27;3.93;;;11.60;58.60;;;;;;4486767;27;657747;-69
2020/12/28 09:42:48;;;;;;;7.67;3.83;;;11.10;59.20;;;;;;4462057;27;657735;-69
2020/12/28 09:45:38;;;;;;;25.40;11.00;;;10.70;60.30;;;;;;4497134;27;657878;-68
2020/12/28 09:48:26;;;;;;;15.63;5.83;;;10.60;61.40;;;;;;4466409;27;659633;-70
2020/12/28 09:51:13;;;;;;;20.03;7.10;;;10.40;61.60;;;;;;4465399;27;659023;-68
2020/12/28 09:54:00;;;;;;;26.73;9.93;;;10.10;62.50;;;;;;4497139;27;660005;-68
2020/12/28 09:56:48;;;;;;;43.73;11.57;;;9.70;64.50;;;;;;4470493;27;657389;-65
2020/12/28 09:59:35;;;;;;;17.27;6.80;;;9.10;66.30;;;;;;4502134;27;659656;-69
2020/12/28 10:02:23;;;;;;;9.50;4.25;;;8.50;68.70;;;;;;4474389;27;656640;-66
2020/12/28 10:05:10;;;;;;;8.40;4.40;;;7.90;70.80;;;;;;4496599;27;656420;-68
2020/12/28 10:07:57;;;;;;;10.50;4.63;;;7.40;73.30;;;;;;4491020;27;655429;-61
2020/12/28 10:10:44;;;;;;;13.53;5.00;;;7.10;74.80;;;;;;4499709;27;656837;-68
2020/12/28 10:13:32;;;;;;;10.80;4.83;;;6.80;76.70;;;;;;4489624;27;656669;-68
2020/12/28 10:16:23;;;;;;;40.33;10.67;;;6.70;78.70;;;;;;4471165;27;657676;-69
2020/12/28 10:19:10;;;;;;;20.37;7.43;;;6.50;80.70;;;;;;4460653;27;658602;-68
2020/12/28 10:22:00;;;;;;;13.87;6.73;;;6.30;83.80;;;;;;4474075;27;656677;-64
2020/12/28 10:24:48;;;;;;;21.10;8.60;;;6.20;87.20;;;;;;4495842;27;656504;-64
2020/12/28 10:27:35;;;;;;;28.37;9.77;;;6.00;90.90;;;;;;4479578;27;657994;-68
2020/12/28 10:30:23;;;;;;;17.97;8.13;;;5.90;92.90;;;;;;4499234;27;656568;-61
2020/12/28 10:33:10;;;;;;;15.03;6.03;;;5.80;95.40;;;;;;4495702;27;658201;-59
2020/12/28 10:35:58;;;;;;;9.85;5.18;;;6.10;95.20;;;;;;4476979;27;656658;-61
2020/12/28 10:38:45;;;;;;;9.97;5.07;;;6.20;94.00;;;;;;4502589;27;658249;-59
2020/12/28 10:41:33;;;;;;;13.90;6.23;;;6.00;94.10;;;;;;4476746;27;656487;-61
2020/12/28 10:44:21;;;;;;;13.47;5.90;;;6.20;92.30;;;;;;4480456;27;657688;-60
2020/12/28 10:47:09;;;;;;;16.43;6.43;;;5.90;93.50;;;;;;4473218;27;656962;-60
2020/12/28 10:49:56;;;;;;;13.67;5.80;;;5.90;95.50;;;;;;4484785;27;656618;-59
2020/12/28 10:52:43;;;;;;;16.90;7.47;;;5.80;96.40;;;;;;4467822;27;657508;-60
2020/12/28 10:55:30;;;;;;;21.30;8.07;;;5.80;97.30;;;;;;4509199;27;658187;-61
2020/12/28 10:58:17;;;;;;;16.88;8.10;;;5.70;98.40;;;;;;4469657;27;657137;-60
2020/12/28 11:01:05;;;;;;;20.57;9.17;;;5.80;99.50;;;;;;4497235;27;656658;-60
2020/12/28 11:03:53;;;;;;;26.27;10.87;;;5.70;99.90;;;;;;4472410;27;658099;-59
2020/12/28 11:06:43;;;;;;;16.60;6.93;;;5.70;99.90;;;;;;4496289;27;658992;-59
2020/12/28 11:09:30;;;;;;;26.30;11.30;;;5.80;99.90;;;;;;4470263;27;657233;-60
2020/12/28 11:12:17;;;;;;;22.87;10.63;;;6.00;96.90;;;;;;4480404;27;657639;-60
2020/12/28 11:15:04;;;;;;;25.10;8.90;;;5.90;96.00;;;;;;4487103;27;658436;-59
2020/12/28 11:17:51;;;;;;;19.07;8.07;;;5.80;97.00;;;;;;4501036;27;656458;-59
2020/12/28 11:20:39;;;;;;;27.70;11.97;;;6.00;91.70;;;;;;4468645;27;656674;-59
2020/12/28 11:23:57;;;;;;;25.57;11.07;;;6.00;92.20;;;;;;4485975;27;657506;-58
2020/12/28 11:26:34;;;;;;;11.87;5.77;;;6.00;93.00;;;;;;4444930;27;657973;-59
2020/12/28 11:29:21;;;;;;;16.83;5.77;;;5.90;92.20;;;;;;4492459;27;656783;-59
2020/12/28 11:32:08;;;;;;;19.57;6.80;;;5.90;90.60;;;;;;4478064;27;657456;-59
2020/12/28 11:34:56;;;;;;;10.27;4.77;;;6.00;88.20;;;;;;4486465;27;658186;-59
2020/12/28 11:37:43;;;;;;;26.27;10.63;;;6.30;80.30;;;;;;4459237;27;656532;-60
2020/12/28 11:40:30;;;;;;;25.03;10.27;;;6.30;80.30;;;;;;4485886;27;658639;-59
2020/12/28 11:43:17;;;;;;;15.93;6.60;;;6.20;82.10;;;;;;4459852;27;657691;-60
2020/12/28 11:46:06;;;;;;;14.57;6.07;;;6.10;83.80;;;;;;4491745;27;657373;-60
2020/12/28 11:48:53;;;;;;;16.00;7.17;;;6.00;85.50;;;;;;4473215;27;656629;-59
2020/12/28 11:51:40;;;;;;;16.00;7.30;;;6.10;85.80;;;;;;4496862;27;658217;-59
2020/12/28 11:54:28;;;;;;;23.77;7.90;;;5.90;87.40;;;;;;4485212;27;656688;-61
2020/12/28 11:57:15;;;;;;;15.97;7.13;;;5.90;87.90;;;;;;4494716;27;656845;-60
2020/12/28 12:00:02;;;;;;;18.47;7.90;;;6.00;86.00;;;;;;4478353;27;657357;-60
2020/12/28 12:02:49;;;;;;;19.60;8.67;;;5.90;85.40;;;;;;4504124;27;656555;-59
2020/12/28 12:05:38;;;;;;;13.73;6.77;;;5.90;84.10;;;;;;4487331;27;656117;-59
2020/12/28 12:08:25;;;;;;;12.93;6.27;;;5.90;81.40;;;;;;4470463;27;657147;-59
2020/12/28 12:11:13;;;;;;;14.32;5.82;;;6.10;78.70;;;;;;4474537;27;656431;-61
2020/12/28 12:14:00;;;;;;;15.70;6.20;;;6.30;76.10;;;;;;4496779;27;657164;-59
2020/12/28 12:16:48;;;;;;;9.52;3.67;;;6.30;75.90;;;;;;4463226;27;656968;-61
2020/12/28 12:19:35;;;;;;;14.23;4.03;;;6.40;74.20;;;;;;4488511;27;656700;-59
2020/12/28 12:22:22;;;;;;;8.70;3.93;;;6.40;73.30;;;;;;4482277;27;656394;-60
2020/12/28 12:25:10;;;;;;;10.23;3.93;;;6.40;73.30;;;;;;4498964;27;657742;-59
2020/12/28 12:27:58;;;;;;;10.70;4.67;;;6.50;73.10;;;;;;4468804;27;657606;-61
2020/12/28 12:30:45;;;;;;;9.57;3.87;;;6.40;72.60;;;;;;4500416;27;657178;-58
2020/12/28 12:33:32;;;;;;;10.27;3.60;;;6.40;72.10;;;;;;4479134;27;657437;-60
2020/12/28 12:36:19;;;;;;;11.23;5.10;;;6.40;71.50;;;;;;4494077;27;656752;-58
2020/12/28 12:39:06;;;;;;;18.20;7.47;;;6.50;71.50;;;;;;4482887;27;657124;-59
2020/12/28 12:41:53;;;;;;;11.07;4.60;;;6.50;71.90;;;;;;4452081;28;656504;-59
2020/12/28 12:44:44;;;;;;;12.90;4.90;;;6.40;71.50;;;;;;4476183;27;657444;-61
2020/12/28 12:47:31;;;;;;;18.20;7.20;;;6.40;71.90;;;;;;4467599;27;658463;-59
2020/12/28 12:50:18;;;;;;;5.50;2.43;;;6.40;72.10;;;;;;4474589;27;657345;-59
2020/12/28 12:53:06;;;;;;;14.20;4.63;;;6.40;71.60;;;;;;4485006;27;656834;-59
2020/12/28 12:55:53;;;;;;;17.67;4.90;;;6.30;71.40;;;;;;4454965;27;656528;-59
2020/12/28 12:58:40;;;;;;;6.97;2.00;;;6.30;72.30;;;;;;4488127;27;656268;-59
2020/12/28 13:01:28;;;;;;;8.20;2.88;;;6.20;72.40;;;;;;4470422;27;655164;-60
2020/12/28 13:04:30;;;;;;;5.10;2.03;;;6.30;72.20;;;;;;4499239;27;657514;-59
2020/12/28 13:07:17;;;;;;;4.73;2.10;;;6.30;72.50;;;;;;4456849;27;655664;-59
2020/12/28 13:10:04;;;;;;;7.03;1.95;;;6.10;73.00;;;;;;4494853;27;657327;-59
2020/12/28 13:12:51;;;;;;;4.90;1.60;;;6.20;72.50;;;;;;4483166;27;655373;-60
2020/12/28 13:15:38;;;;;;;4.22;2.28;;;6.30;72.40;;;;;;4479151;27;655436;-59
2020/12/28 13:18:26;;;;;;;2.83;1.30;;;6.10;72.20;;;;;;4492857;27;656782;-60
2020/12/28 13:21:13;;;;;;;3.95;1.85;;;6.00;72.90;;;;;;4483063;27;655599;-59
2020/12/28 13:24:00;;;;;;;4.53;2.10;;;6.10;73.00;;;;;;4485806;27;657225;-59
2020/12/28 13:26:48;;;;;;;5.87;2.27;;;6.00;73.70;;;;;;4481324;27;655415;-60
2020/12/28 13:29:35;;;;;;;10.83;3.57;;;5.90;73.60;;;;;;4488699;27;656626;-59
2020/12/28 13:32:23;;;;;;;7.50;3.00;;;5.90;73.80;;;;;;4466018;27;657165;-60
2020/12/28 13:35:10;;;;;;;11.97;4.60;;;5.90;74.60;;;;;;4503192;27;656801;-60
2020/12/28 13:38:00;;;;;;;13.17;4.87;;;6.00;73.80;;;;;;4469907;27;656878;-60
2020/12/28 13:40:47;;;;;;;8.00;3.58;;;5.80;74.40;;;;;;4471628;27;658220;-61
2020/12/28 13:43:34;;;;;;;7.03;3.10;;;5.80;74.80;;;;;;4492521;27;655541;-59
2020/12/28 13:46:21;;;;;;;6.13;2.07;;;6.10;73.00;;;;;;4498490;27;655692;-59
2020/12/28 13:49:08;;;;;;;5.72;2.58;;;6.00;72.90;;;;;;4475020;27;656118;-60
2020/12/28 13:51:57;;;;;;;13.90;4.70;;;6.00;72.90;;;;;;4497006;27;656580;-59
2020/12/28 13:54:44;;;;;;;14.03;5.63;;;5.90;73.70;;;;;;4476613;27;658090;-59
2020/12/28 13:57:31;;;;;;;14.03;5.20;;;5.80;73.90;;;;;;4486780;27;656830;-59
2020/12/28 14:00:18;;;;;;;13.30;5.03;;;5.90;73.30;;;;;;4473768;27;657257;-60
2020/12/28 14:03:05;;;;;;;8.85;3.47;;;5.90;72.90;;;;;;4487420;27;657944;-59
2020/12/28 14:05:52;;;;;;;5.82;2.58;;;5.90;72.90;;;;;;4476108;27;655582;-60
2020/12/28 14:08:40;;;;;;;7.13;2.53;;;6.00;72.90;;;;;;4501751;27;656615;-59
2020/12/28 14:11:28;;;;;;;7.57;2.90;;;6.10;72.20;;;;;;4468575;27;656501;-61
2020/12/28 14:14:15;;;;;;;9.73;3.70;;;6.10;71.80;;;;;;4486645;27;656161;-59
2020/12/28 14:17:03;;;;;;;11.53;4.00;;;6.00;72.90;;;;;;4478554;27;657864;-60
2020/12/28 14:19:49;;;;;;;18.30;7.40;;;5.80;73.30;;;;;;4503304;27;657757;-60
2020/12/28 14:22:38;;;;;;;26.13;9.60;;;5.70;74.00;;;;;;4504479;27;658081;-60